Time;durP1;ratioP1;P1;durP2;ratioP2;P2;SDS_P1;SDS_P2;PMS_P1;PMS_P2;Temp;Humidity;BMP_temperature;BMP_pressure;BME280_temperature;BME280_humidity;BME280_pressure;Samples;Min_cycle;Max_cycle;Signal;HPM_P1;HPM_P2
2022/01/02 00:01:12;;;;;;;11.27;6.78;;;11.50;99.90;;;;;;5038785;28;19948;-72
2022/01/02 00:03:40;;;;;;;13.45;7.43;;;11.50;99.90;;;;;;5051837;28;20040;-75
2022/01/02 00:06:07;;;;;;;12.85;7.65;;;11.40;99.90;;;;;;5049027;28;20068;-74
2022/01/02 00:08:45;;;;;;;16.20;8.20;;;11.40;99.90;;;;;;5055705;28;20047;-72
2022/01/02 00:11:16;;;;;;;12.07;7.53;;;11.40;99.90;;;;;;5055352;28;20040;-75
2022/01/02 00:13:47;;;;;;;12.85;7.63;;;11.40;99.90;;;;;;5039674;28;20048;-72
2022/01/02 00:16:16;;;;;;;16.10;8.52;;;11.40;99.90;;;;;;5055622;28;20051;-72
2022/01/02 00:18:50;;;;;;;15.73;7.70;;;11.30;99.90;;;;;;5055390;28;20036;-72
2022/01/02 00:21:18;;;;;;;15.48;7.85;;;11.40;99.90;;;;;;5051554;28;20076;-72
2022/01/02 00:23:59;;;;;;;11.82;7.40;;;11.30;99.90;;;;;;5035559;28;20056;-74
2022/01/02 00:26:36;;;;;;;13.77;7.90;;;11.30;99.90;;;;;;5035357;28;20475;-72
2022/01/02 00:29:04;;;;;;;14.82;7.75;;;11.30;99.90;;;;;;5052471;28;20037;-75
2022/01/02 00:31:31;;;;;;;13.57;7.05;;;11.30;99.90;;;;;;5035430;28;20475;-74
2022/01/02 00:33:57;;;;;;;12.88;7.18;;;11.30;99.90;;;;;;5035088;28;20064;-73
2022/01/02 00:36:23;;;;;;;13.80;7.78;;;11.30;99.90;;;;;;5035392;28;20360;-72
2022/01/02 00:38:48;;;;;;;13.05;7.30;;;11.20;99.90;;;;;;5052317;28;20048;-72
2022/01/02 00:41:21;;;;;;;14.90;7.60;;;11.20;99.90;;;;;;5035636;28;20468;-75
2022/01/02 00:43:52;;;;;;;13.98;7.50;;;11.20;99.90;;;;;;5035327;28;20044;-72
2022/01/02 00:46:21;;;;;;;13.70;7.85;;;11.20;99.90;;;;;;5034860;28;20064;-72
2022/01/02 00:48:50;;;;;;;12.75;7.30;;;11.20;99.90;;;;;;5035064;28;20098;-72
2022/01/02 00:51:37;;;;;;;12.48;7.32;;;11.20;99.90;;;;;;5038145;28;20041;-76
2022/01/02 00:54:06;;;;;;;15.00;7.60;;;11.20;99.90;;;;;;5019113;28;20052;-71
2022/01/02 00:56:33;;;;;;;15.50;7.30;;;11.20;99.90;;;;;;5035179;28;20115;-72
2022/01/02 00:59:00;;;;;;;11.98;7.13;;;11.20;99.90;;;;;;5036785;28;20057;-71
2022/01/02 01:01:34;;;;;;;13.27;7.53;;;11.20;99.90;;;;;;5055245;28;20044;-72
2022/01/02 01:04:01;;;;;;;15.30;7.43;;;11.20;99.90;;;;;;5055347;28;20098;-72
2022/01/02 01:06:31;;;;;;;13.45;7.53;;;11.20;99.90;;;;;;5054943;28;20045;-72
2022/01/02 01:09:00;;;;;;;;;;;11.20;99.90;;;;;;5055476;28;20360;-74
2022/01/02 01:11:27;;;;;;;13.23;7.88;;;11.10;99.90;;;;;;5054444;28;20418;-71
2022/01/02 01:13:55;;;;;;;13.73;7.10;;;11.20;99.90;;;;;;5055076;28;20049;-72
2022/01/02 01:16:22;;;;;;;14.23;7.50;;;11.10;99.90;;;;;;5055089;28;20052;-72
2022/01/02 01:18:48;;;;;;;10.73;6.85;;;11.10;99.90;;;;;;5038545;28;20125;-72
2022/01/02 01:21:15;;;;;;;14.75;7.47;;;11.10;99.90;;;;;;5038165;28;20044;-71
2022/01/02 01:23:41;;;;;;;15.18;7.70;;;11.10;99.90;;;;;;5051041;28;20066;-72
2022/01/02 01:26:09;;;;;;;14.32;7.40;;;11.10;99.90;;;;;;5051048;28;20049;-72
2022/01/02 01:28:35;;;;;;;14.00;7.70;;;11.10;99.90;;;;;;5034867;28;20056;-72
2022/01/02 01:31:01;;;;;;;12.43;7.13;;;11.10;99.90;;;;;;5053244;28;20037;-72
2022/01/02 01:33:26;;;;;;;13.23;7.05;;;11.10;99.90;;;;;;5055586;28;20040;-74
2022/01/02 01:35:52;;;;;;;14.60;7.72;;;11.10;99.90;;;;;;5038372;28;20387;-76
2022/01/02 01:38:18;;;;;;;16.77;8.10;;;11.10;99.90;;;;;;5038338;28;20105;-74
2022/01/02 01:41:00;;;;;;;14.80;7.65;;;11.10;99.90;;;;;;5041068;28;20029;-72
2022/01/02 01:43:38;;;;;;;13.77;7.35;;;11.20;99.90;;;;;;5048252;28;20074;-72
2022/01/02 01:46:05;;;;;;;14.88;6.88;;;11.20;99.90;;;;;;5021641;28;20111;-74
2022/01/02 01:48:31;;;;;;;13.27;7.50;;;11.10;99.90;;;;;;5038174;28;20467;-73
2022/01/02 01:50:57;;;;;;;12.88;7.00;;;11.10;99.90;;;;;;5023695;28;20043;-72
2022/01/02 01:53:23;;;;;;;13.70;7.65;;;11.10;99.90;;;;;;5054461;28;20041;-71
2022/01/02 01:55:49;;;;;;;13.98;7.72;;;11.10;99.90;;;;;;5050190;28;20394;-71
2022/01/02 01:58:15;;;;;;;12.25;7.32;;;11.10;99.90;;;;;;5037974;28;20126;-72
2022/01/02 02:00:41;;;;;;;18.55;7.63;;;11.10;99.90;;;;;;5038123;28;20056;-71
2022/01/02 02:03:07;;;;;;;15.73;8.18;;;11.10;99.90;;;;;;5038027;28;20044;-72
2022/01/02 02:05:32;;;;;;;15.18;8.02;;;11.10;99.90;;;;;;5037693;28;20048;-72
2022/01/02 02:07:58;;;;;;;14.30;7.80;;;11.10;99.90;;;;;;5037457;28;20049;-73
2022/01/02 02:10:35;;;;;;;20.10;7.88;;;11.10;99.90;;;;;;5038305;28;20467;-74
2022/01/02 02:13:03;;;;;;;16.63;8.32;;;11.10;99.90;;;;;;5041116;28;20467;-72
2022/01/02 02:15:29;;;;;;;16.88;8.18;;;11.10;99.90;;;;;;5057893;28;20044;-72
2022/01/02 02:17:54;;;;;;;16.48;8.40;;;11.10;99.90;;;;;;5057741;28;20045;-72
2022/01/02 02:20:21;;;;;;;19.23;7.88;;;11.10;99.90;;;;;;5057277;28;20444;-72
2022/01/02 02:22:52;;;;;;;20.98;8.63;;;11.10;99.90;;;;;;5041163;28;20130;-73
2022/01/02 02:25:20;;;;;;;18.48;8.45;;;11.10;99.90;;;;;;5057289;28;20127;-72
2022/01/02 02:27:59;;;;;;;20.60;9.10;;;11.10;99.90;;;;;;5057501;28;20127;-72
2022/01/02 02:30:28;;;;;;;19.40;8.95;;;11.10;99.90;;;;;;5056113;28;20434;-72
2022/01/02 02:32:55;;;;;;;15.45;8.10;;;11.10;99.90;;;;;;5057100;28;20114;-75
2022/01/02 02:35:21;;;;;;;18.60;8.40;;;11.10;99.90;;;;;;5057534;28;20048;-74
2022/01/02 02:37:47;;;;;;;18.40;7.60;;;11.10;99.90;;;;;;5041165;28;20136;-72
2022/01/02 02:40:16;;;;;;;15.02;7.93;;;11.10;99.90;;;;;;5057285;28;20098;-72
2022/01/02 02:54:02;;;;;;;17.45;8.73;;;11.10;99.90;;;;;;5046414;28;20503;-72
2022/01/02 02:56:40;;;;;;;16.85;8.02;;;11.10;99.90;;;;;;5040511;28;20101;-72
2022/01/02 02:59:06;;;;;;;15.77;7.88;;;11.10;99.90;;;;;;5056763;28;20391;-75
2022/01/02 03:01:32;;;;;;;15.38;8.25;;;11.10;99.90;;;;;;5056552;28;20501;-73
2022/01/02 03:03:57;;;;;;;17.58;8.05;;;11.00;99.90;;;;;;5056743;28;20044;-74
2022/01/02 03:06:23;;;;;;;19.08;8.68;;;11.10;99.90;;;;;;5056141;28;20048;-72
2022/01/02 03:08:49;;;;;;;16.25;7.57;;;11.10;99.90;;;;;;5056854;28;20123;-72
2022/01/02 03:11:19;;;;;;;18.08;8.43;;;11.10;99.90;;;;;;5040116;28;20044;-75
2022/01/02 03:13:46;;;;;;;17.30;8.48;;;11.00;99.90;;;;;;5056777;28;20142;-71
2022/01/02 03:16:12;;;;;;;19.48;8.23;;;11.00;99.90;;;;;;5056450;28;20093;-72
2022/01/02 03:18:39;;;;;;;17.45;8.55;;;11.00;99.90;;;;;;5056260;28;20036;-71
2022/01/02 03:21:05;;;;;;;19.52;9.00;;;11.00;99.90;;;;;;5056210;28;20044;-72
2022/01/02 03:23:31;;;;;;;15.82;8.38;;;11.00;99.90;;;;;;5056937;28;20060;-72
2022/01/02 03:25:57;;;;;;;20.73;9.15;;;11.00;99.90;;;;;;5056285;28;20041;-72
2022/01/02 03:28:23;;;;;;;17.20;8.85;;;11.00;99.90;;;;;;5056436;28;20044;-71
2022/01/02 03:30:49;;;;;;;17.65;8.25;;;11.00;99.90;;;;;;5055894;28;20513;-75
2022/01/02 03:33:15;;;;;;;15.50;8.55;;;11.00;99.90;;;;;;5055606;28;20044;-72
2022/01/02 03:35:41;;;;;;;16.70;8.48;;;11.00;99.90;;;;;;5056098;28;20044;-72
2022/01/02 03:38:08;;;;;;;20.27;8.30;;;11.00;99.90;;;;;;5039754;28;20048;-72
2022/01/02 03:40:34;;;;;;;20.20;8.90;;;11.00;99.90;;;;;;5056191;28;20040;-72
2022/01/02 03:43:00;;;;;;;17.92;8.40;;;11.00;99.90;;;;;;5054978;28;20048;-72
2022/01/02 03:45:25;;;;;;;20.95;8.25;;;11.00;99.90;;;;;;5038743;28;20107;-76
2022/01/02 03:47:51;;;;;;;17.45;8.13;;;10.90;99.90;;;;;;5038348;28;20036;-71
2022/01/02 03:50:17;;;;;;;22.10;8.93;;;10.90;99.90;;;;;;5056219;28;20492;-72
2022/01/02 03:52:43;;;;;;;18.08;7.50;;;10.90;99.90;;;;;;5055589;28;20040;-72
2022/01/02 03:55:09;;;;;;;20.85;8.90;;;11.00;99.90;;;;;;5055836;28;20094;-72
2022/01/02 03:57:35;;;;;;;18.88;8.40;;;11.00;99.90;;;;;;5055720;28;20040;-72
2022/01/02 04:00:06;;;;;;;20.10;8.10;;;11.00;99.90;;;;;;5054937;28;20078;-74
2022/01/02 04:02:31;;;;;;;21.40;7.90;;;11.00;99.90;;;;;;5055494;28;20497;-72
2022/01/02 04:04:57;;;;;;;19.63;7.97;;;11.00;99.90;;;;;;5055740;28;20040;-72
2022/01/02 04:07:23;;;;;;;19.83;8.75;;;11.00;99.90;;;;;;5055827;28;20561;-72
2022/01/02 04:09:50;;;;;;;19.83;8.13;;;11.00;99.90;;;;;;5056161;28;20043;-72
2022/01/02 04:12:16;;;;;;;18.67;8.27;;;11.00;99.90;;;;;;5055882;28;20364;-73
2022/01/02 04:14:42;;;;;;;16.83;8.23;;;11.00;99.90;;;;;;5055708;28;20539;-72
2022/01/02 04:17:07;;;;;;;18.75;8.90;;;11.00;99.90;;;;;;5055215;28;20398;-72
2022/01/02 04:19:33;;;;;;;16.08;8.02;;;11.00;99.90;;;;;;5055347;28;20097;-73
2022/01/02 04:21:59;;;;;;;17.40;7.78;;;10.90;99.90;;;;;;5055964;28;20067;-74
2022/01/02 04:24:24;;;;;;;17.58;7.72;;;11.00;99.90;;;;;;5055294;28;20040;-73
2022/01/02 04:26:50;;;;;;;21.02;8.77;;;10.90;99.90;;;;;;5055511;28;20189;-72
2022/01/02 04:29:15;;;;;;;21.75;8.55;;;10.90;99.90;;;;;;5038249;28;20130;-72
2022/01/02 04:31:41;;;;;;;24.25;8.35;;;11.00;99.90;;;;;;5055307;28;20052;-72
2022/01/02 04:34:07;;;;;;;17.13;7.75;;;11.00;99.90;;;;;;5055004;28;20048;-74
2022/01/02 04:36:32;;;;;;;20.55;8.50;;;11.00;99.90;;;;;;5055405;28;20505;-73
2022/01/02 04:38:58;;;;;;;20.00;7.90;;;11.00;99.90;;;;;;5055071;28;20051;-72
2022/01/02 04:41:24;;;;;;;18.95;8.18;;;11.00;99.90;;;;;;5055453;28;20043;-72
2022/01/02 04:43:49;;;;;;;18.02;7.18;;;11.00;99.90;;;;;;5055345;28;20135;-72
2022/01/02 04:46:15;;;;;;;16.55;7.60;;;11.10;99.90;;;;;;5038372;28;20040;-72
2022/01/02 04:48:40;;;;;;;18.80;7.05;;;11.10;99.90;;;;;;5055257;28;20047;-72
2022/01/02 04:51:06;;;;;;;19.50;7.63;;;11.10;99.90;;;;;;5055969;28;20044;-72
2022/01/02 04:53:32;;;;;;;20.23;7.25;;;11.20;99.90;;;;;;5054994;28;20497;-72
2022/01/02 04:55:58;;;;;;;17.42;7.25;;;11.20;99.90;;;;;;5055583;28;20055;-72
2022/01/02 04:58:24;;;;;;;21.70;7.03;;;11.20;99.90;;;;;;5038848;28;20056;-71
2022/01/02 05:00:49;;;;;;;20.08;7.47;;;11.20;99.90;;;;;;5051241;28;20049;-74
2022/01/02 05:03:15;;;;;;;21.58;7.05;;;11.20;99.90;;;;;;5035102;28;20098;-72
2022/01/02 05:05:40;;;;;;;17.77;7.25;;;11.20;99.90;;;;;;5038349;28;20128;-75
2022/01/02 05:08:06;;;;;;;19.77;6.35;;;11.30;99.90;;;;;;5039550;28;20082;-74
2022/01/02 05:10:32;;;;;;;23.10;7.30;;;11.30;99.90;;;;;;5038942;28;20406;-72
2022/01/02 05:12:57;;;;;;;19.50;6.03;;;11.40;99.90;;;;;;5038748;28;20511;-72
2022/01/02 05:15:23;;;;;;;17.85;6.05;;;11.40;99.90;;;;;;5038907;28;20063;-74
2022/01/02 05:17:48;;;;;;;15.57;6.05;;;11.40;99.90;;;;;;5038509;28;20100;-74
2022/01/02 05:20:14;;;;;;;18.10;6.03;;;11.40;99.90;;;;;;5038949;28;20045;-72
2022/01/02 05:22:40;;;;;;;15.23;6.10;;;11.50;99.90;;;;;;5039157;28;20048;-73
2022/01/02 05:25:06;;;;;;;19.85;6.15;;;11.60;99.90;;;;;;5022356;28;20036;-72
2022/01/02 05:27:32;;;;;;;17.90;5.70;;;11.60;99.90;;;;;;5038492;28;20123;-71
2022/01/02 05:29:58;;;;;;;14.68;5.30;;;11.60;99.90;;;;;;5038522;28;20119;-72
2022/01/02 05:32:23;;;;;;;18.10;5.07;;;11.70;99.90;;;;;;5057521;28;20072;-75
2022/01/02 05:34:49;;;;;;;21.27;5.43;;;11.80;99.90;;;;;;5055283;28;20084;-72
2022/01/02 05:37:14;;;;;;;13.43;4.72;;;11.70;99.90;;;;;;5039028;28;20041;-72
2022/01/02 05:39:40;;;;;;;17.27;5.35;;;11.80;99.90;;;;;;5038451;28;20429;-72
2022/01/02 05:42:06;;;;;;;14.85;5.15;;;11.80;99.90;;;;;;5021510;28;20037;-72
2022/01/02 05:44:32;;;;;;;12.82;4.70;;;11.80;99.90;;;;;;5038314;28;20033;-73
2022/01/02 05:46:58;;;;;;;13.70;4.53;;;11.90;99.90;;;;;;5038100;28;20098;-72
2022/01/02 05:49:23;;;;;;;14.63;4.90;;;11.90;99.90;;;;;;5038867;28;20447;-73
2022/01/02 05:51:49;;;;;;;17.00;4.63;;;12.00;99.90;;;;;;5037990;28;20045;-72
2022/01/02 05:54:15;;;;;;;19.20;5.50;;;12.10;99.90;;;;;;5038335;28;20476;-72
2022/01/02 05:56:41;;;;;;;16.08;4.53;;;12.10;99.90;;;;;;5021926;28;20044;-72
2022/01/02 05:59:06;;;;;;;17.15;4.18;;;12.10;99.90;;;;;;5037986;28;20053;-73
2022/01/02 06:01:32;;;;;;;18.17;4.55;;;12.20;99.90;;;;;;5050189;28;20126;-72
2022/01/02 06:03:58;;;;;;;16.42;4.57;;;12.10;99.90;;;;;;5058589;28;20032;-75
2022/01/02 06:06:24;;;;;;;12.68;4.30;;;12.10;99.90;;;;;;5058222;28;20429;-73
2022/01/02 06:08:49;;;;;;;13.48;4.47;;;12.20;99.90;;;;;;5041446;28;20123;-75
2022/01/02 06:11:15;;;;;;;16.48;4.53;;;12.20;99.90;;;;;;5054206;28;20548;-72
2022/01/02 06:13:41;;;;;;;12.32;4.68;;;12.20;99.90;;;;;;5021363;28;20041;-72
2022/01/02 06:16:08;;;;;;;13.43;4.20;;;12.20;99.90;;;;;;5020276;28;20041;-71
2022/01/02 06:18:34;;;;;;;12.85;4.18;;;12.20;99.90;;;;;;5038299;28;20041;-72
2022/01/02 06:20:59;;;;;;;12.40;4.70;;;12.20;99.90;;;;;;5038306;28;20048;-72
2022/01/02 06:23:25;;;;;;;12.68;3.80;;;12.20;99.90;;;;;;5037905;28;20406;-72
2022/01/02 06:25:51;;;;;;;15.30;3.88;;;12.20;99.90;;;;;;5020928;28;20386;-72
2022/01/02 06:28:19;;;;;;;16.30;4.18;;;12.30;99.90;;;;;;5042241;28;20079;-71
2022/01/02 06:30:45;;;;;;;11.68;3.78;;;12.30;99.90;;;;;;5056912;28;20137;-72
2022/01/02 06:33:10;;;;;;;15.57;3.97;;;12.30;99.90;;;;;;5058106;28;20475;-71
2022/01/02 06:35:36;;;;;;;10.52;3.88;;;12.30;99.90;;;;;;5057328;28;20048;-71
2022/01/02 06:38:17;;;;;;;14.40;4.45;;;12.20;99.90;;;;;;5040995;28;20459;-71
2022/01/02 06:40:42;;;;;;;15.40;3.92;;;12.20;99.90;;;;;;5071926;28;20115;-71
2022/01/02 06:43:09;;;;;;;17.50;4.20;;;12.20;99.90;;;;;;5056833;28;20135;-71
2022/01/02 06:45:35;;;;;;;12.55;4.50;;;12.20;99.90;;;;;;5057244;28;20032;-70
2022/01/02 06:48:03;;;;;;;15.15;4.57;;;12.20;99.90;;;;;;5056871;28;20107;-71
2022/01/02 06:50:29;;;;;;;12.45;4.38;;;12.20;99.90;;;;;;5057620;28;20117;-71
2022/01/02 06:52:54;;;;;;;10.20;3.92;;;12.10;99.90;;;;;;5057230;28;20076;-71
2022/01/02 06:55:20;;;;;;;12.75;4.60;;;12.10;99.90;;;;;;5056967;28;20368;-71
2022/01/02 06:57:46;;;;;;;13.20;4.50;;;12.10;99.90;;;;;;5056781;28;20086;-72
2022/01/02 07:00:12;;;;;;;13.68;4.60;;;12.10;99.90;;;;;;5056758;28;20049;-72
2022/01/02 07:02:37;;;;;;;13.07;4.40;;;12.10;99.90;;;;;;5056975;28;20036;-71
2022/01/02 07:05:03;;;;;;;10.18;4.43;;;12.10;99.90;;;;;;5040015;28;20043;-71
2022/01/02 07:07:29;;;;;;;13.77;4.05;;;12.00;99.90;;;;;;5056624;28;20372;-72
2022/01/02 07:09:55;;;;;;;11.25;4.32;;;12.00;99.90;;;;;;5056629;28;20047;-72
2022/01/02 07:12:20;;;;;;;12.77;4.47;;;12.00;99.90;;;;;;5056603;28;20445;-72
2022/01/02 07:14:46;;;;;;;12.73;4.50;;;12.00;99.90;;;;;;5040082;28;20039;-73
2022/01/02 07:17:12;;;;;;;15.27;5.10;;;12.00;99.90;;;;;;5056547;28;20048;-74
2022/01/02 07:19:37;;;;;;;13.57;5.05;;;12.00;99.90;;;;;;5053336;28;20037;-75
2022/01/02 07:22:05;;;;;;;13.23;4.95;;;11.90;99.90;;;;;;5052847;28;20086;-72
2022/01/02 07:24:31;;;;;;;11.63;4.60;;;11.90;99.90;;;;;;5036579;28;20052;-71
2022/01/02 07:26:56;;;;;;;11.65;5.03;;;11.90;99.90;;;;;;5036039;28;20041;-72
2022/01/02 07:29:22;;;;;;;12.25;4.55;;;11.90;99.90;;;;;;5035636;28;20060;-72
2022/01/02 07:31:48;;;;;;;15.30;4.95;;;11.80;99.90;;;;;;5036621;28;20048;-74
2022/01/02 07:34:13;;;;;;;16.30;5.03;;;11.80;99.90;;;;;;5036406;28;20045;-72
2022/01/02 07:36:44;;;;;;;12.32;5.80;;;11.80;99.90;;;;;;5019961;28;20045;-72
2022/01/02 07:39:11;;;;;;;11.98;5.60;;;11.80;99.90;;;;;;5036128;28;20045;-71
2022/01/02 07:41:36;;;;;;;17.55;5.30;;;11.80;99.90;;;;;;5035864;28;20045;-72
2022/01/02 07:44:03;;;;;;;11.38;6.00;;;11.80;99.90;;;;;;5036233;28;20133;-72
2022/01/02 07:46:31;;;;;;;13.25;5.13;;;11.70;99.90;;;;;;5020049;28;20120;-72
2022/01/02 07:48:57;;;;;;;13.05;5.65;;;11.80;99.90;;;;;;5047408;28;20154;-72
2022/01/02 07:51:22;;;;;;;15.75;6.10;;;11.70;99.90;;;;;;5055904;28;20473;-71
2022/01/02 07:53:48;;;;;;;17.10;5.40;;;11.80;99.90;;;;;;5055715;28;20051;-71
2022/01/02 07:56:15;;;;;;;15.50;5.57;;;11.70;99.90;;;;;;5055560;28;20040;-71
2022/01/02 07:58:41;;;;;;;11.60;5.15;;;11.70;99.90;;;;;;5055906;28;20056;-72
2022/01/02 08:01:07;;;;;;;13.00;5.55;;;11.70;99.90;;;;;;5056437;28;20059;-72
2022/01/02 08:03:33;;;;;;;11.15;4.85;;;11.70;99.90;;;;;;5055733;28;20390;-74
2022/01/02 08:05:58;;;;;;;15.82;5.07;;;11.70;99.90;;;;;;5039027;28;20079;-72
2022/01/02 08:08:25;;;;;;;12.90;5.25;;;11.70;99.90;;;;;;5039137;28;20127;-74
2022/01/02 08:10:51;;;;;;;15.02;5.97;;;11.70;99.90;;;;;;5038887;28;20037;-71
2022/01/02 08:13:17;;;;;;;10.93;4.60;;;11.70;99.90;;;;;;5055948;28;20036;-70
2022/01/02 08:15:43;;;;;;;12.13;5.00;;;11.80;99.90;;;;;;5051847;28;20040;-73
2022/01/02 08:18:13;;;;;;;12.50;5.22;;;11.80;99.90;;;;;;5035923;28;20078;-71
2022/01/02 08:20:40;;;;;;;14.73;5.32;;;11.80;99.90;;;;;;5035923;28;20128;-72
2022/01/02 08:23:05;;;;;;;12.13;5.15;;;11.80;99.90;;;;;;5035618;28;20139;-72
2022/01/02 08:25:31;;;;;;;11.73;4.85;;;11.70;99.90;;;;;;5035180;28;20119;-71
2022/01/02 08:27:56;;;;;;;14.02;5.53;;;11.70;99.90;;;;;;5036129;28;20077;-72
2022/01/02 08:30:22;;;;;;;18.30;5.30;;;11.70;99.90;;;;;;5041780;28;20068;-72
2022/01/02 08:32:48;;;;;;;14.65;6.03;;;11.60;99.90;;;;;;5039491;28;20036;-72
2022/01/02 08:35:13;;;;;;;10.13;5.10;;;11.60;99.90;;;;;;5038963;28;20040;-72
2022/01/02 08:37:39;;;;;;;14.60;5.47;;;11.60;99.90;;;;;;5055040;28;20047;-73
2022/01/02 08:40:05;;;;;;;11.80;4.88;;;11.60;99.90;;;;;;5057160;28;20054;-73
2022/01/02 08:42:31;;;;;;;10.52;4.45;;;11.60;99.90;;;;;;5059624;28;20436;-71
2022/01/02 08:44:57;;;;;;;11.57;4.68;;;11.60;99.90;;;;;;5059614;28;20040;-72
2022/01/02 08:47:22;;;;;;;11.55;4.43;;;11.60;99.90;;;;;;5055747;28;20063;-73
2022/01/02 08:49:48;;;;;;;9.73;4.35;;;11.60;99.90;;;;;;5039282;28;20383;-71
2022/01/02 08:52:14;;;;;;;9.13;4.47;;;11.70;99.90;;;;;;5039262;28;20052;-73
2022/01/02 08:54:39;;;;;;;13.30;4.10;;;11.70;99.90;;;;;;5038938;28;20056;-72
2022/01/02 08:57:05;;;;;;;9.93;4.15;;;11.70;99.90;;;;;;5039449;28;20048;-72
2022/01/02 08:59:31;;;;;;;9.00;4.88;;;11.80;99.90;;;;;;5027766;28;20132;-76
2022/01/02 09:01:57;;;;;;;9.50;3.90;;;11.80;99.90;;;;;;5003175;28;20037;-75
2022/01/02 09:04:22;;;;;;;12.13;4.63;;;11.80;99.90;;;;;;5019220;28;20076;-72
2022/01/02 09:06:48;;;;;;;8.43;4.53;;;11.90;99.90;;;;;;5018853;28;20038;-73
2022/01/02 09:09:14;;;;;;;11.60;4.43;;;11.90;99.90;;;;;;5029311;28;20044;-71
2022/01/02 09:11:39;;;;;;;6.82;3.58;;;11.90;99.90;;;;;;5036372;28;20037;-76
2022/01/02 09:14:05;;;;;;;12.10;4.47;;;11.90;99.90;;;;;;5039557;28;20094;-72
2022/01/02 09:16:31;;;;;;;9.55;4.07;;;11.90;99.90;;;;;;5038641;28;20368;-72
2022/01/02 09:18:57;;;;;;;9.98;4.18;;;11.90;99.90;;;;;;5038894;28;20041;-74
2022/01/02 09:21:22;;;;;;;8.60;4.47;;;11.90;99.90;;;;;;5039101;28;20045;-74
2022/01/02 09:23:48;;;;;;;13.07;4.68;;;11.80;99.90;;;;;;5038678;28;20033;-75
2022/01/02 09:26:14;;;;;;;8.52;4.20;;;11.80;99.90;;;;;;5021782;28;20071;-72
2022/01/02 09:28:39;;;;;;;11.40;4.63;;;11.80;99.90;;;;;;5038557;28;20472;-73
2022/01/02 09:31:05;;;;;;;10.60;4.47;;;11.80;99.90;;;;;;5038506;28;20467;-73
2022/01/02 09:33:31;;;;;;;14.27;4.53;;;11.80;99.90;;;;;;5038703;28;20087;-72
2022/01/02 09:35:57;;;;;;;8.07;4.57;;;11.80;99.90;;;;;;5038552;28;20091;-72
2022/01/02 09:38:22;;;;;;;10.15;4.38;;;11.80;99.90;;;;;;5021441;28;20043;-72
2022/01/02 09:40:48;;;;;;;7.50;4.05;;;11.80;99.90;;;;;;5038845;28;20045;-71
2022/01/02 09:43:16;;;;;;;9.52;4.75;;;11.80;99.90;;;;;;5038639;28;20076;-73
2022/01/02 09:45:45;;;;;;;8.38;4.53;;;11.80;99.90;;;;;;5038669;28;20040;-73
2022/01/02 09:48:11;;;;;;;6.65;3.92;;;11.80;99.90;;;;;;5038231;28;20124;-71
2022/01/02 09:50:38;;;;;;;9.98;4.57;;;11.90;99.90;;;;;;5037670;28;20128;-75
2022/01/02 09:53:05;;;;;;;12.15;4.15;;;11.80;99.90;;;;;;5021238;28;20037;-72
2022/01/02 09:55:30;;;;;;;9.48;4.50;;;11.80;99.90;;;;;;5022155;28;20041;-72
2022/01/02 09:57:59;;;;;;;11.50;4.10;;;11.80;99.90;;;;;;5034285;28;20044;-73
2022/01/02 10:00:25;;;;;;;10.20;4.32;;;11.80;99.90;;;;;;5037190;28;20059;-71
2022/01/02 10:03:03;;;;;;;9.18;4.28;;;11.80;99.90;;;;;;5038034;28;20056;-72
2022/01/02 10:05:47;;;;;;;14.20;4.60;;;11.80;99.90;;;;;;5037319;28;20467;-72
2022/01/02 10:08:21;;;;;;;9.00;4.43;;;11.80;99.90;;;;;;5037948;28;20394;-72
2022/01/02 10:10:47;;;;;;;8.52;4.30;;;11.80;99.90;;;;;;5037982;28;20033;-73
2022/01/02 10:13:12;;;;;;;10.20;4.40;;;11.80;99.90;;;;;;5038181;28;20036;-75
2022/01/02 10:15:38;;;;;;;14.90;4.80;;;11.90;99.90;;;;;;5037727;28;20041;-73
2022/01/02 10:18:09;;;;;;;14.30;4.45;;;11.80;99.90;;;;;;5037229;28;20083;-72
2022/01/02 10:20:40;;;;;;;8.98;4.65;;;11.90;99.90;;;;;;5037949;28;20438;-72
2022/01/02 10:23:10;;;;;;;9.65;4.72;;;11.90;99.90;;;;;;5037504;28;20044;-72
2022/01/02 10:25:38;;;;;;;9.55;4.85;;;11.90;99.90;;;;;;5037826;28;20040;-72
2022/01/02 10:28:31;;;;;;;9.45;4.32;;;11.90;99.90;;;;;;5048982;28;20043;-75
2022/01/02 10:30:58;;;;;;;8.20;4.70;;;11.90;99.90;;;;;;5057567;28;20047;-71
2022/01/02 10:33:24;;;;;;;9.13;4.82;;;12.00;99.90;;;;;;5057424;28;20043;-72
2022/01/02 10:35:58;;;;;;;12.95;4.32;;;12.00;99.90;;;;;;5053860;28;20120;-72
2022/01/02 10:38:23;;;;;;;12.90;5.10;;;12.00;99.90;;;;;;5020897;28;20033;-73
2022/01/02 10:40:49;;;;;;;11.13;4.80;;;12.00;99.90;;;;;;5053865;28;20045;-72
2022/01/02 10:43:30;;;;;;;7.90;4.47;;;12.10;99.90;;;;;;5036982;28;20072;-73
2022/01/02 10:45:59;;;;;;;10.38;4.18;;;12.10;99.90;;;;;;5037277;28;20029;-72
2022/01/02 10:48:41;;;;;;;15.10;5.72;;;12.20;99.90;;;;;;5053915;28;20037;-72
2022/01/02 10:51:14;;;;;;;10.25;4.80;;;12.10;99.90;;;;;;5038629;28;20049;-72
2022/01/02 10:53:58;;;;;;;10.63;5.40;;;12.10;99.90;;;;;;5056635;28;20043;-72
2022/01/02 10:56:30;;;;;;;7.95;4.78;;;12.20;99.90;;;;;;5057146;28;20040;-74
2022/01/02 10:58:58;;;;;;;11.80;4.78;;;12.20;99.90;;;;;;5056237;28;20052;-72
2022/01/02 11:01:24;;;;;;;12.40;5.32;;;12.20;99.90;;;;;;5056341;28;20044;-72
2022/01/02 11:03:51;;;;;;;10.75;5.30;;;12.20;99.90;;;;;;5056490;28;20378;-76
2022/01/02 11:06:32;;;;;;;9.05;5.35;;;12.40;99.90;;;;;;5056157;28;20036;-71
2022/01/02 11:08:59;;;;;;;8.40;5.15;;;12.40;99.90;;;;;;5056536;28;20044;-74
2022/01/02 11:11:27;;;;;;;12.05;5.20;;;12.40;99.90;;;;;;5056553;28;20125;-73
2022/01/02 11:13:53;;;;;;;10.00;5.25;;;12.30;99.90;;;;;;5056821;28;20079;-72
2022/01/02 11:16:19;;;;;;;10.52;5.32;;;12.30;99.90;;;;;;5040008;28;20101;-72
2022/01/02 11:18:46;;;;;;;9.80;5.38;;;12.30;99.90;;;;;;5056080;28;20055;-72
2022/01/02 11:21:13;;;;;;;13.77;5.40;;;12.30;99.90;;;;;;5056642;28;20087;-72
2022/01/02 11:23:48;;;;;;;14.60;5.60;;;12.20;99.90;;;;;;5056599;28;20086;-72
2022/01/02 11:26:43;;;;;;;10.13;5.35;;;12.20;99.90;;;;;;5055337;28;20390;-72
2022/01/02 11:29:09;;;;;;;8.85;5.35;;;12.30;99.90;;;;;;5054497;28;20052;-72
2022/01/02 11:31:39;;;;;;;20.83;5.45;;;12.30;99.90;;;;;;5055345;28;20444;-72
2022/01/02 11:34:27;;;;;;;10.75;4.95;;;12.30;99.90;;;;;;5055505;28;20044;-72
2022/01/02 11:37:13;;;;;;;9.93;5.15;;;12.30;99.90;;;;;;5055369;28;20076;-71
2022/01/02 11:39:59;;;;;;;9.50;5.45;;;12.30;99.90;;;;;;5038795;28;20041;-73
2022/01/02 11:42:38;;;;;;;10.45;5.45;;;12.30;99.90;;;;;;5038309;28;20486;-72
2022/01/02 11:45:24;;;;;;;10.27;5.30;;;12.30;99.90;;;;;;5055149;28;20044;-72
2022/01/02 11:47:50;;;;;;;13.70;5.43;;;12.30;99.90;;;;;;5021116;28;20131;-72
2022/01/02 11:50:31;;;;;;;11.50;4.60;;;12.30;99.90;;;;;;5054466;28;20115;-74
2022/01/02 11:53:12;;;;;;;10.15;4.93;;;12.30;99.90;;;;;;5038638;28;20041;-73
2022/01/02 11:55:41;;;;;;;9.13;4.78;;;12.30;99.90;;;;;;5054610;28;20048;-72
2022/01/02 11:58:07;;;;;;;12.10;4.85;;;12.40;99.90;;;;;;5054447;28;20059;-72
2022/01/02 12:00:40;;;;;;;13.40;5.20;;;12.40;99.90;;;;;;5055173;28;20399;-74
2022/01/02 12:03:06;;;;;;;9.63;3.85;;;12.30;99.90;;;;;;5055063;28;20040;-72
2022/01/02 12:05:31;;;;;;;10.63;4.38;;;12.40;99.90;;;;;;5038217;28;20032;-73
2022/01/02 12:07:58;;;;;;;12.18;4.32;;;12.40;99.90;;;;;;5054943;28;20036;-72
2022/01/02 12:10:37;;;;;;;10.10;4.38;;;12.40;99.90;;;;;;5054007;28;20401;-72
2022/01/02 12:13:07;;;;;;;15.18;4.95;;;12.40;99.90;;;;;;5054836;28;20114;-72
2022/01/02 12:15:33;;;;;;;;;;;12.40;99.90;;;;;;5054156;28;20048;-72
2022/01/02 12:18:16;;;;;;;11.88;4.43;;;12.30;99.90;;;;;;5054371;28;19917;-72
2022/01/02 12:20:56;;;;;;;10.48;3.80;;;12.40;99.90;;;;;;5054405;28;20045;-74
2022/01/02 12:23:34;;;;;;;11.57;4.60;;;12.40;99.90;;;;;;5054657;28;20173;-73
2022/01/02 12:26:21;;;;;;;10.30;3.95;;;12.40;99.90;;;;;;5054175;28;20044;-73
2022/01/02 12:29:02;;;;;;;8.43;3.92;;;12.40;99.90;;;;;;5054218;28;20044;-74
2022/01/02 12:31:32;;;;;;;11.02;4.10;;;12.40;99.90;;;;;;5037765;28;20045;-72
2022/01/02 12:34:11;;;;;;;8.57;4.40;;;12.30;99.90;;;;;;5054616;28;20037;-72
2022/01/02 12:36:41;;;;;;;12.30;4.60;;;12.40;99.90;;;;;;5054241;28;20119;-72
2022/01/02 12:39:26;;;;;;;11.60;4.05;;;12.40;99.90;;;;;;5037571;28;20475;-72
2022/01/02 12:41:51;;;;;;;13.57;4.28;;;12.30;99.90;;;;;;5054318;28;20045;-72
2022/01/02 12:44:26;;;;;;;7.43;3.88;;;12.30;99.90;;;;;;5038019;28;20491;-72
2022/01/02 12:46:57;;;;;;;11.05;4.20;;;12.30;99.90;;;;;;5053378;28;20048;-76
2022/01/02 12:49:47;;;;;;;10.70;4.30;;;12.30;99.90;;;;;;5049818;28;20056;-71
2022/01/02 12:52:14;;;;;;;15.02;4.22;;;12.30;99.90;;;;;;5057642;28;20044;-72
2022/01/02 12:54:50;;;;;;;12.95;4.30;;;12.30;99.90;;;;;;5037473;28;20102;-74